Montrose, Iowa
Current Conditions -  °F | °C
As of 5:55 AM on Thursday 23 Oct 2014 (Local Time) from KEOK Reporting Station
Clear Clear  
Wind Chill: 45°   Ceiling: Unl
Heat Index: 48°   Visibility: 10mi
Dew Point: 41°   Wind: 7mph
Humidity: 76%   Direction: 160°SSE
Pressure: 30.14"   Gusts: NA
Location:  40.53°N, 91.41°W
Report Text: KEOK 231055Z AUTO 16006KT 10SM CLR 09/05 A3014 RMK AO2
Loading
Personal Weather Stations






























Interactive Weather Map
Tropical Storm Tracking
New forecast layout! Learn more

10-Day Weather Forecast

Advertisements
Track Severe Weather on mobile